Time;durP1;ratioP1;P1;durP2;ratioP2;P2;SDS_P1;SDS_P2;PMS_P1;PMS_P2;Temp;Humidity;BMP_temperature;BMP_pressure;BME280_temperature;BME280_humidity;BME280_pressure;Samples;Min_cycle;Max_cycle;Signal;HPM_P1;HPM_P2
2024/01/12 00:17:06;;;;;;;2.42;0.63;;;;;;;7.12;100.00;100691.63;6228524;22;20086;-85
2024/01/12 00:19:36;;;;;;;1.50;0.60;;;;;;;7.08;100.00;100694.00;6181180;23;20017;-88
2024/01/12 00:32:32;;;;;;;4.97;2.03;;;;;;;6.86;100.00;100690.50;6212142;23;20021;-88
2024/01/12 05:20:19;;;;;;;1.17;0.47;;;;;;;6.44;100.00;100818.88;6215656;22;20468;-84
2024/01/12 05:22:48;;;;;;;7.32;0.98;;;;;;;6.45;100.00;100815.50;6211859;23;20122;-86
2024/01/12 05:25:18;;;;;;;3.65;0.60;;;;;;;6.47;100.00;100818.13;6212253;23;20047;-86
2024/01/12 05:27:47;;;;;;;3.17;0.77;;;;;;;6.54;100.00;100829.59;6211130;23;20028;-85
2024/01/12 05:30:16;;;;;;;6.05;2.60;;;;;;;6.56;100.00;100820.28;6211628;23;20108;-83
2024/01/12 05:32:45;;;;;;;46.30;21.38;;;;;;;6.60;100.00;100824.75;6212643;23;20048;-85
2024/01/12 05:35:22;;;;;;;9.73;5.20;;;;;;;6.64;100.00;100817.25;6213552;23;20013;-86
2024/01/12 05:37:51;;;;;;;2.10;1.27;;;;;;;6.67;100.00;100821.66;6211900;23;20023;-84
2024/01/12 05:40:23;;;;;;;2.30;1.50;;;;;;;6.68;100.00;100820.81;6212247;23;20021;-85
2024/01/12 05:43:02;;;;;;;0.65;0.52;;;;;;;6.71;100.00;100819.28;6212571;23;20016;-84
2024/01/12 05:45:31;;;;;;;1.02;0.47;;;;;;;6.70;100.00;100821.78;6211710;23;20017;-85
2024/01/12 05:48:00;;;;;;;2.28;0.80;;;;;;;6.75;100.00;100825.44;6212948;23;20457;-86
2024/01/12 05:50:39;;;;;;;2.78;1.25;;;;;;;6.76;100.00;100823.72;6212582;23;20024;-84
2024/01/12 05:53:09;;;;;;;1.55;0.60;;;;;;;6.75;100.00;100822.88;6213010;23;20013;-84
2024/01/12 05:55:38;;;;;;;3.70;0.57;;;;;;;6.68;100.00;100816.56;6217177;23;20021;-86
2024/01/12 05:58:07;;;;;;;3.90;0.95;;;;;;;6.64;100.00;100821.47;6211972;23;20013;-85
2024/01/12 06:00:39;;;;;;;2.70;0.88;;;;;;;6.63;100.00;100819.75;6212657;23;20023;-84
2024/01/12 06:03:08;;;;;;;0.85;0.40;;;;;;;6.60;100.00;100815.34;6211598;23;20013;-85
2024/01/12 06:05:40;;;;;;;3.03;0.73;;;;;;;6.49;100.00;100807.13;6212422;23;20127;-84
2024/01/12 06:08:09;;;;;;;5.27;0.97;;;;;;;6.42;100.00;100797.38;6212888;23;20029;-83
2024/01/12 06:10:44;;;;;;;1.38;0.55;;;;;;;6.35;100.00;100797.00;6211942;23;20020;-84
2024/01/12 06:13:13;;;;;;;3.10;0.50;;;;;;;6.24;100.00;100797.38;6208406;23;20074;-84
2024/01/12 06:15:42;;;;;;;3.00;0.55;;;;;;;6.19;100.00;100796.28;6207060;23;20036;-83
2024/01/12 06:18:11;;;;;;;2.20;0.43;;;;;;;6.18;100.00;100806.47;6210230;23;20096;-84
2024/01/12 06:20:47;;;;;;;0.70;0.47;;;;;;;6.13;100.00;100810.50;6211881;23;20095;-83
2024/01/12 06:23:16;;;;;;;1.17;0.40;;;;;;;6.06;100.00;100801.63;6211623;23;20024;-84
2024/01/12 06:25:45;;;;;;;1.58;0.20;;;;;;;6.07;100.00;100805.97;6212190;23;20024;-84
2024/01/12 06:28:14;;;;;;;0.13;0.13;;;;;;;6.06;100.00;100809.34;6212372;23;20108;-82
2024/01/12 06:30:46;;;;;;;1.55;0.30;;;;;;;6.04;100.00;100801.53;6213230;23;20020;-82
2024/01/12 06:33:16;;;;;;;1.23;0.20;;;;;;;6.00;100.00;100793.63;6216530;23;20036;-89
2024/01/12 06:35:46;;;;;;;2.70;0.30;;;;;;;6.10;100.00;100815.53;6212474;23;20024;-84
2024/01/12 06:38:16;;;;;;;2.08;0.30;;;;;;;6.08;100.00;100806.03;6211318;23;20027;-83
2024/01/12 06:40:50;;;;;;;3.30;0.32;;;;;;;6.08;100.00;100808.59;6212919;23;20012;-82
2024/01/12 06:43:20;;;;;;;6.65;0.80;;;;;;;6.08;100.00;100806.03;6211595;23;20017;-83
2024/01/12 06:45:49;;;;;;;0.20;0.20;;;;;;;6.06;100.00;100810.22;6214213;23;20070;-83
2024/01/12 06:48:18;;;;;;;1.00;0.38;;;;;;;6.00;100.00;100803.91;6214127;23;20100;-83
2024/01/12 06:50:55;;;;;;;1.48;0.47;;;;;;;6.00;100.00;100825.34;6214635;23;20370;-84
2024/01/12 06:53:24;;;;;;;0.20;0.10;;;;;;;6.01;100.00;100821.97;6213879;23;20020;-86
2024/01/12 06:55:54;;;;;;;2.63;0.30;;;;;;;5.98;100.00;100815.78;6214258;23;20075;-84
2024/01/12 06:58:26;;;;;;;2.25;0.10;;;;;;;5.96;100.00;100818.28;6213714;23;20040;-84
2024/01/12 07:00:58;;;;;;;0.30;0.10;;;;;;;6.02;100.00;100831.41;6213190;23;20012;-85
2024/01/12 07:03:29;;;;;;;1.15;0.57;;;;;;;6.04;100.00;100829.81;6213857;23;20021;-85
2024/01/12 07:06:00;;;;;;;0.82;0.32;;;;;;;6.02;100.00;100831.41;6213548;23;20107;-84
2024/01/12 07:08:34;;;;;;;0.65;0.40;;;;;;;6.03;100.00;100834.88;6215073;23;20432;-85
2024/01/12 07:11:05;;;;;;;1.08;0.25;;;;;;;6.04;100.00;100837.50;6218284;23;20017;-85
2024/01/12 07:13:34;;;;;;;0.30;0.15;;;;;;;6.07;100.00;100837.69;6208152;23;20075;-84
2024/01/12 07:16:04;;;;;;;2.55;0.25;;;;;;;6.01;100.00;100837.38;6209209;23;20056;-84
2024/01/12 07:18:40;;;;;;;0.17;0.08;;;;;;;5.98;100.00;100836.31;6213809;23;20012;-83
2024/01/12 07:21:12;;;;;;;3.22;0.20;;;;;;;5.98;100.00;100842.38;6212994;23;20096;-84
2024/01/12 07:23:41;;;;;;;0.15;0.10;;;;;;;5.95;100.00;100829.34;6213364;23;20020;-84
2024/01/12 07:26:12;;;;;;;0.63;0.43;;;;;;;5.93;100.00;100833.50;6213745;23;20016;-84
2024/01/12 07:28:41;;;;;;;0.82;0.28;;;;;;;5.93;100.00;100832.63;6213298;23;20452;-84
2024/01/12 07:31:10;;;;;;;4.30;0.30;;;;;;;5.95;100.00;100841.31;6213239;23;20013;-84
2024/01/12 07:33:39;;;;;;;1.75;0.10;;;;;;;5.97;100.00;100839.72;6214287;23;20055;-83
2024/01/12 07:36:23;;;;;;;1.55;0.30;;;;;;;5.96;100.00;100846.53;6213778;23;20021;-85
2024/01/12 07:38:51;;;;;;;1.08;0.40;;;;;;;6.05;100.00;100838.41;6213876;23;20017;-84
2024/01/12 07:41:20;;;;;;;0.65;0.28;;;;;;;6.01;100.00;100837.38;6214297;23;20028;-84
2024/01/12 07:43:49;;;;;;;0.75;0.25;;;;;;;6.00;100.00;100835.63;6213236;23;20027;-84
2024/01/12 07:46:23;;;;;;;0.98;0.32;;;;;;;5.99;100.00;100836.41;6214440;23;20456;-83
2024/01/12 07:48:53;;;;;;;0.17;0.10;;;;;;;6.00;100.00;100833.06;6217851;23;20019;-84
2024/01/12 07:51:24;;;;;;;0.17;0.10;;;;;;;5.89;100.00;100826.47;6212704;23;20017;-83
2024/01/12 07:53:56;;;;;;;1.17;0.32;;;;;;;5.92;100.00;100824.03;6213129;23;20021;-85
2024/01/12 07:56:28;;;;;;;0.28;0.20;;;;;;;5.91;100.00;100829.09;6212799;23;20116;-83
2024/01/12 07:58:57;;;;;;;0.80;0.30;;;;;;;5.88;100.00;100819.56;6213744;23;20016;-85
2024/01/12 08:01:26;;;;;;;0.70;0.30;;;;;;;5.91;100.00;100829.09;6212870;23;20074;-83
2024/01/12 08:03:58;;;;;;;2.60;0.70;;;;;;;5.91;100.00;100840.28;6213965;23;20013;-84
2024/01/12 08:06:32;;;;;;;2.40;0.43;;;;;;;5.91;100.00;100832.56;6212742;23;20017;-84
2024/01/12 08:09:01;;;;;;;0.55;0.17;;;;;;;5.91;100.00;100830.00;6213758;23;20048;-83
2024/01/12 08:11:31;;;;;;;2.88;0.38;;;;;;;5.90;100.00;100833.34;6207491;23;20021;-84
2024/01/12 08:14:02;;;;;;;2.67;0.60;;;;;;;5.89;100.00;100821.34;6201673;23;20114;-83
2024/01/12 08:16:31;;;;;;;2.75;0.50;;;;;;;5.88;100.00;100835.84;6203601;23;20023;-84
2024/01/12 08:19:00;;;;;;;1.20;0.40;;;;;;;5.88;100.00;100835.84;6206359;23;20120;-84
2024/01/12 08:21:31;;;;;;;3.78;0.57;;;;;;;5.88;100.00;100835.84;6175969;23;20044;-84
2024/01/12 08:24:00;;;;;;;1.88;0.38;;;;;;;5.90;100.00;100828.22;6173696;23;20021;-83
2024/01/12 08:26:31;;;;;;;2.72;0.40;;;;;;;5.90;100.00;100832.47;6180880;23;20016;-83
2024/01/12 08:29:01;;;;;;;0.90;0.57;;;;;;;5.90;100.00;100837.63;6175277;23;20112;-83
2024/01/12 08:31:30;;;;;;;0.82;0.38;;;;;;;5.87;100.00;100839.22;6176090;23;20052;-83
2024/01/12 08:34:00;;;;;;;2.03;0.28;;;;;;;5.87;100.00;100846.06;6173761;23;20035;-83
2024/01/12 08:36:37;;;;;;;0.80;0.28;;;;;;;5.93;100.00;100854.03;6175642;23;20020;-84
2024/01/12 08:39:06;;;;;;;4.20;0.40;;;;;;;5.97;100.00;100850.84;6176405;23;20025;-83
2024/01/12 08:41:36;;;;;;;1.00;0.40;;;;;;;6.01;100.00;100842.50;6179795;23;20095;-83
2024/01/12 08:44:06;;;;;;;3.33;0.40;;;;;;;6.05;100.00;100854.69;6180340;23;20028;-83
2024/01/12 08:46:38;;;;;;;1.58;0.50;;;;;;;6.02;100.00;100844.25;6183310;23;20063;-84
2024/01/12 08:49:07;;;;;;;1.13;0.60;;;;;;;6.03;100.00;100843.47;6182959;23;20025;-83
2024/01/12 08:51:39;;;;;;;0.80;0.40;;;;;;;6.04;100.00;100847.78;6182279;23;20025;-85
2024/01/12 08:54:25;;;;;;;0.98;0.30;;;;;;;6.08;100.00;100849.69;6183491;23;20036;-85
2024/01/12 08:56:54;;;;;;;1.50;0.52;;;;;;;6.07;100.00;100847.94;6182691;23;20426;-83
2024/01/12 08:59:23;;;;;;;1.25;0.65;;;;;;;6.06;100.00;100837.59;6183565;23;20021;-84
2024/01/12 09:01:52;;;;;;;0.03;0.00;;;;;;;6.05;100.00;100848.69;6183006;23;20024;-84
2024/01/12 09:04:22;;;;;;;1.75;0.10;;;;;;;6.01;100.00;100846.78;6186769;23;20071;-84
2024/01/12 09:06:53;;;;;;;0.13;0.10;;;;;;;6.01;100.00;100854.47;6183052;23;20092;-83
2024/01/12 09:09:23;;;;;;;0.15;0.10;;;;;;;6.01;100.00;100854.47;6182375;23;20029;-83
2024/01/12 09:11:59;;;;;;;0.75;0.35;;;;;;;5.99;100.00;100848.38;6182798;23;20071;-85
2024/01/12 09:14:28;;;;;;;0.45;0.30;;;;;;;6.02;100.00;100849.38;6175612;23;20017;-83
2024/01/12 09:16:57;;;;;;;0.40;0.10;;;;;;;6.00;100.00;100860.41;6179157;23;20032;-84
2024/01/12 09:19:26;;;;;;;0.47;0.32;;;;;;;5.96;100.00;100848.22;6186569;23;20040;-85
2024/01/12 09:22:04;;;;;;;2.40;0.85;;;;;;;5.96;100.00;100849.09;6212416;23;20023;-84
2024/01/12 09:24:33;;;;;;;1.00;0.32;;;;;;;5.99;100.00;100859.53;6212245;23;20024;-83
2024/01/12 09:27:03;;;;;;;3.60;0.40;;;;;;;5.99;100.00;100864.66;6212200;23;20020;-84
2024/01/12 09:29:32;;;;;;;1.10;0.40;;;;;;;5.98;100.00;100854.31;6212261;23;20029;-84
2024/01/12 09:32:04;;;;;;;1.33;0.45;;;;;;;6.01;100.00;100868.19;6212095;23;20020;-86
2024/01/12 09:34:33;;;;;;;2.40;0.52;;;;;;;6.03;100.00;100866.59;6212516;23;20095;-83
2024/01/12 09:37:04;;;;;;;2.40;0.95;;;;;;;6.07;100.00;100878.78;6211552;23;20020;-83
2024/01/12 09:39:36;;;;;;;3.03;0.68;;;;;;;6.07;100.00;100883.03;6212486;23;20017;-84
2024/01/12 09:42:09;;;;;;;0.68;0.30;;;;;;;6.08;100.00;100884.78;6215187;23;20309;-84
2024/01/12 09:44:40;;;;;;;0.10;0.10;;;;;;;6.01;100.00;100862.19;6212587;23;20031;-83
2024/01/12 09:47:10;;;;;;;0.22;0.17;;;;;;;5.97;100.00;100873.97;6211796;23;20013;-83
2024/01/12 09:49:48;;;;;;;0.45;0.20;;;;;;;5.97;100.00;100886.81;6211851;23;20092;-84
2024/01/12 09:52:20;;;;;;;2.17;0.20;;;;;;;6.00;100.00;100897.25;6212441;23;20137;-83
2024/01/12 09:54:49;;;;;;;0.32;0.13;;;;;;;6.01;100.00;100888.75;6211557;23;20024;-83
2024/01/12 09:57:23;;;;;;;0.28;0.10;;;;;;;5.97;100.00;100884.25;6213017;23;20028;-84
2024/01/12 09:59:53;;;;;;;0.15;0.08;;;;;;;5.93;100.00;100900.28;6211620;23;20024;-83
2024/01/12 10:02:22;;;;;;;0.30;0.30;;;;;;;5.93;100.00;100905.41;6211782;23;20360;-84
2024/01/12 10:04:51;;;;;;;1.23;0.15;;;;;;;5.95;100.00;100903.84;6211300;23;20036;-83
2024/01/12 10:07:22;;;;;;;1.17;0.40;;;;;;;5.95;100.00;100898.69;6212623;23;20059;-85
2024/01/12 10:09:51;;;;;;;1.67;0.75;;;;;;;5.97;100.00;100901.34;6211412;23;20017;-83
2024/01/12 10:12:20;;;;;;;2.53;0.32;;;;;;;5.96;100.00;100910.75;6211663;23;20066;-85
2024/01/12 10:14:49;;;;;;;1.38;0.50;;;;;;;5.97;100.00;100917.63;6203848;23;20075;-83
2024/01/12 10:17:19;;;;;;;3.85;0.55;;;;;;;5.96;100.00;100903.03;6206836;23;20020;-83
2024/01/12 10:19:51;;;;;;;1.67;0.45;;;;;;;5.99;100.00;100921.16;6219463;23;20021;-83
2024/01/12 10:22:22;;;;;;;4.88;0.55;;;;;;;6.00;100.00;100916.91;6213882;23;20016;-84
2024/01/12 10:25:00;;;;;;;4.03;0.40;;;;;;;6.00;100.00;100912.69;6215890;23;20016;-84
2024/01/12 10:27:31;;;;;;;0.98;0.55;;;;;;;6.02;100.00;100921.31;6215140;23;20032;-84
2024/01/12 10:30:00;;;;;;;0.47;0.35;;;;;;;6.03;100.00;100912.81;6215356;23;20036;-84
2024/01/12 10:32:29;;;;;;;1.38;0.55;;;;;;;6.02;100.00;100913.59;6215066;23;20040;-83
2024/01/12 10:34:58;;;;;;;4.53;0.75;;;;;;;5.95;100.00;100911.53;6215361;23;20019;-83
2024/01/12 10:37:35;;;;;;;1.25;0.47;;;;;;;5.87;100.00;100906.00;6216046;23;20017;-83
2024/01/12 10:40:06;;;;;;;1.88;0.38;;;;;;;5.88;100.00;100912.00;6214981;23;20027;-83
2024/01/12 10:42:36;;;;;;;1.05;0.40;;;;;;;5.89;100.00;100918.91;6215188;23;20067;-83
2024/01/12 10:45:16;;;;;;;1.40;0.32;;;;;;;5.85;100.00;100906.72;6214959;23;20531;-83
2024/01/12 10:47:53;;;;;;;0.95;0.68;;;;;;;5.91;100.00;100913.84;6215638;23;20074;-84
2024/01/12 10:50:28;;;;;;;1.55;0.32;;;;;;;5.92;100.00;100916.50;6213721;23;20012;-84
2024/01/12 10:53:08;;;;;;;0.75;0.70;;;;;;;5.89;100.00;100918.91;6215149;23;20024;-85
2024/01/12 10:55:49;;;;;;;3.10;0.50;;;;;;;5.93;100.00;100923.38;6216587;23;20055;-84
2024/01/12 10:58:20;;;;;;;1.05;0.30;;;;;;;5.97;100.00;100927.03;6217000;23;20059;-84
2024/01/12 11:00:51;;;;;;;2.67;0.43;;;;;;;6.01;100.00;100931.53;6215049;23;20057;-86
2024/01/12 11:03:22;;;;;;;0.70;0.47;;;;;;;6.03;100.00;100923.09;6215166;23;20023;-86
2024/01/12 11:05:59;;;;;;;1.15;0.30;;;;;;;6.05;100.00;100926.63;6214538;23;20110;-85
2024/01/12 11:08:33;;;;;;;1.20;0.50;;;;;;;6.07;100.00;100924.16;6215865;23;20100;-83
2024/01/12 11:11:15;;;;;;;1.75;0.35;;;;;;;6.11;100.00;100936.31;6214750;23;20232;-84
2024/01/12 11:13:45;;;;;;;1.33;0.50;;;;;;;6.10;100.00;100923.41;6210256;23;20075;-83
2024/01/12 11:16:15;;;;;;;0.30;0.30;;;;;;;6.10;100.00;100928.56;6209246;23;20032;-83
2024/01/12 11:18:44;;;;;;;2.38;0.65;;;;;;;6.10;100.00;100925.97;6214720;23;20020;-83
2024/01/12 11:21:17;;;;;;;1.23;0.65;;;;;;;6.13;100.00;100928.69;6215231;23;20044;-83
2024/01/12 11:23:48;;;;;;;1.27;0.40;;;;;;;6.12;100.00;100929.50;6214758;23;20039;-82
2024/01/12 11:26:18;;;;;;;1.55;0.45;;;;;;;6.13;100.00;100936.41;6215122;23;20024;-84
2024/01/12 11:28:50;;;;;;;3.08;0.55;;;;;;;6.11;100.00;100925.16;6215128;23;20028;-83
2024/01/12 11:31:29;;;;;;;1.42;0.20;;;;;;;6.14;100.00;100930.44;6210192;23;20035;-84
2024/01/12 11:34:02;;;;;;;1.00;0.20;;;;;;;6.17;100.00;100939.19;6215892;23;20044;-84
2024/01/12 11:36:41;;;;;;;2.13;0.32;;;;;;;6.18;100.00;100935.81;6214394;23;20016;-84
2024/01/12 11:39:15;;;;;;;1.13;0.57;;;;;;;6.17;100.00;100946.91;6213718;23;20020;-83
2024/01/12 11:41:49;;;;;;;0.50;0.22;;;;;;;6.07;100.00;100935.28;6213260;23;20017;-84
2024/01/12 11:44:21;;;;;;;1.42;0.43;;;;;;;6.06;100.00;100941.22;6213426;23;20326;-84
2024/01/12 11:46:51;;;;;;;2.63;0.30;;;;;;;6.02;100.00;100941.00;6212830;23;20476;-85
2024/01/12 11:49:20;;;;;;;4.28;0.45;;;;;;;6.03;100.00;100941.06;6213802;23;20079;-85
2024/01/12 11:51:49;;;;;;;1.92;0.28;;;;;;;6.02;100.00;100925.56;6213362;23;20017;-83
2024/01/12 11:54:27;;;;;;;2.10;0.47;;;;;;;6.04;100.00;100935.13;6213596;23;20028;-84
2024/01/12 11:56:56;;;;;;;1.73;0.50;;;;;;;6.07;100.00;100939.56;6212555;23;20448;-84
2024/01/12 11:59:25;;;;;;;1.42;0.20;;;;;;;6.06;100.00;100933.50;6209701;23;20023;-84
2024/01/12 12:01:57;;;;;;;1.75;0.40;;;;;;;6.12;100.00;100935.53;6212091;23;20021;-84
2024/01/12 12:04:26;;;;;;;4.75;0.57;;;;;;;6.12;100.00;100929.50;6207519;23;20507;-84
2024/01/12 12:06:55;;;;;;;0.50;0.45;;;;;;;6.13;100.00;100933.84;6212351;23;20020;-85
2024/01/12 12:09:27;;;;;;;2.28;0.70;;;;;;;6.19;100.00;100929.00;6211959;23;20020;-84
2024/01/12 12:12:02;;;;;;;3.50;0.60;;;;;;;6.17;100.00;100931.50;6216209;23;20091;-83
2024/01/12 12:14:31;;;;;;;3.58;0.85;;;;;;;6.21;100.00;100947.97;6207174;23;20066;-83
2024/01/12 12:17:00;;;;;;;2.35;0.60;;;;;;;6.21;100.00;100942.81;6208895;23;20016;-83
2024/01/12 12:19:29;;;;;;;3.30;0.90;;;;;;;6.19;100.00;100945.31;6212592;23;20025;-83
2024/01/12 12:22:00;;;;;;;2.88;0.28;;;;;;;6.21;100.00;100953.09;6211994;23;20016;-82
2024/01/12 12:24:32;;;;;;;1.95;0.52;;;;;;;6.22;100.00;100957.41;6213743;23;20031;-83
2024/01/12 12:27:02;;;;;;;1.73;0.40;;;;;;;6.26;100.00;100959.34;6211800;23;20040;-83
2024/01/12 12:29:31;;;;;;;1.90;0.22;;;;;;;6.27;100.00;100964.53;6212814;23;20543;-84
2024/01/12 12:32:12;;;;;;;2.40;0.60;;;;;;;6.29;100.00;100956.91;6213627;23;20044;-84
2024/01/12 12:34:43;;;;;;;2.47;0.80;;;;;;;6.33;100.00;100958.84;6212069;23;20028;-84
2024/01/12 12:37:13;;;;;;;2.05;0.20;;;;;;;6.32;100.00;100966.47;6213080;23;20495;-84
2024/01/12 12:39:48;;;;;;;1.13;0.17;;;;;;;6.34;100.00;100976.00;6212518;23;20021;-84
2024/01/12 12:42:17;;;;;;;0.65;0.30;;;;;;;6.35;100.00;100980.34;6213231;23;20016;-85
2024/01/12 12:44:47;;;;;;;5.22;1.10;;;;;;;6.36;100.00;100982.09;6212618;23;20024;-86
2024/01/12 12:47:22;;;;;;;0.70;0.50;;;;;;;6.37;100.00;100989.03;6212084;23;20028;-85
2024/01/12 12:49:54;;;;;;;3.55;0.38;;;;;;;6.36;100.00;100987.25;6216661;23;20095;-85
2024/01/12 12:52:23;;;;;;;1.77;0.32;;;;;;;6.30;100.00;100974.13;6213209;23;20388;-86
2024/01/12 12:54:54;;;;;;;0.57;0.20;;;;;;;6.31;100.00;100996.41;6213906;23;20020;-87
2024/01/12 12:57:24;;;;;;;3.75;0.90;;;;;;;6.27;100.00;100984.22;6213253;23;20456;-87
2024/01/12 12:59:53;;;;;;;3.47;0.43;;;;;;;6.26;100.00;100991.06;6214428;23;20024;-87
2024/01/12 13:02:23;;;;;;;3.40;0.43;;;;;;;6.24;100.00;100984.06;6213937;23;20055;-88
2024/01/12 13:04:54;;;;;;;2.40;0.30;;;;;;;6.24;100.00;100984.94;6215080;23;20040;-87
2024/01/12 13:07:34;;;;;;;;;;;;;;;;;;;;;
2024/01/12 13:10:07;;;;;;;3.30;0.50;;;;;;;6.24;100.00;100982.38;6213725;23;20456;-84
2024/01/12 13:12:36;;;;;;;0.20;0.15;;;;;;;6.22;100.00;100986.56;6208938;23;20472;-86
2024/01/12 13:15:06;;;;;;;1.20;0.30;;;;;;;6.19;100.00;100982.97;6207370;23;20041;-86
2024/01/12 13:17:36;;;;;;;0.20;0.20;;;;;;;6.17;100.00;100993.16;6207549;23;20449;-86
2024/01/12 13:20:05;;;;;;;1.13;0.30;;;;;;;6.14;100.00;100989.53;6213255;23;20021;-85
2024/01/12 13:22:34;;;;;;;1.60;0.40;;;;;;;6.17;100.00;101002.56;6213756;23;20353;-87
2024/01/12 13:25:18;;;;;;;2.50;0.17;;;;;;;6.18;100.00;101006.88;6211589;23;20168;-87
2024/01/12 13:27:48;;;;;;;3.60;0.40;;;;;;;6.18;100.00;101001.75;6216479;23;20048;-87
2024/01/12 13:30:17;;;;;;;1.77;0.35;;;;;;;6.14;100.00;100987.88;6213963;23;20020;-87
2024/01/12 13:32:46;;;;;;;0.40;0.22;;;;;;;6.09;100.00;100986.72;6213984;23;20067;-86
2024/01/12 13:35:24;;;;;;;0.30;0.20;;;;;;;6.08;100.00;100987.53;6215525;23;20099;-86
2024/01/12 13:37:54;;;;;;;2.10;0.20;;;;;;;6.04;100.00;100985.63;6212902;23;20457;-87
2024/01/12 13:40:30;;;;;;;0.73;0.28;;;;;;;6.03;100.00;100986.44;6214334;23;20027;-88
2024/01/12 14:01:16;;;;;;;6.30;0.82;;;;;;;6.01;100.00;101001.75;6216076;22;20191;-86
2024/01/12 14:03:49;;;;;;;2.33;0.25;;;;;;;5.91;100.00;100989.22;6213304;23;20031;-86
2024/01/12 14:06:19;;;;;;;4.40;0.28;;;;;;;5.99;100.00;100998.22;6215989;23;20024;-86
2024/01/12 14:08:48;;;;;;;0.82;0.35;;;;;;;5.95;100.00;100993.72;6212159;23;20038;-87
2024/01/12 14:11:24;;;;;;;0.25;0.20;;;;;;;5.94;100.00;100997.13;6211340;23;20164;-87
2024/01/12 14:13:54;;;;;;;2.83;0.55;;;;;;;5.94;100.00;101004.81;6208211;23;20020;-86
2024/01/12 14:32:05;;;;;;;0.57;0.28;;;;;;;5.90;100.00;101002.84;6224992;23;20574;-86
2024/01/12 14:34:34;;;;;;;2.25;0.30;;;;;;;5.93;100.00;101004.69;6180600;23;20040;-86
2024/01/12 14:37:03;;;;;;;1.55;0.10;;;;;;;5.92;100.00;100993.53;6182426;23;20021;-86
2024/01/12 14:39:42;;;;;;;3.00;0.32;;;;;;;5.93;100.00;101008.13;6181665;23;20017;-86
2024/01/12 14:42:11;;;;;;;3.70;0.50;;;;;;;5.90;100.00;101010.56;6183939;23;20041;-87
2024/01/12 14:44:40;;;;;;;1.25;0.45;;;;;;;5.84;100.00;101007.66;6184844;23;20076;-85
2024/01/12 14:47:21;;;;;;;;;;;;;;;;;;;;;
2024/01/12 14:49:51;;;;;;;1.95;0.30;;;;;;;5.84;100.00;101012.78;6182258;23;20028;-85
2024/01/12 14:52:20;;;;;;;2.22;0.40;;;;;;;5.86;100.00;101011.19;6181541;23;20021;-85
2024/01/12 14:54:59;;;;;;;;;;;;;;;;;;;;;
2024/01/12 14:57:28;;;;;;;1.48;0.60;;;;;;;5.80;100.00;101011.75;6182825;23;20329;-84
2024/01/12 15:00:00;;;;;;;1.08;0.35;;;;;;;5.71;100.00;101020.69;6181527;23;20021;-85
2024/01/12 15:02:33;;;;;;;2.30;0.40;;;;;;;5.61;100.00;101015.06;6182899;23;20024;-85
2024/01/12 15:05:06;;;;;;;0.52;0.28;;;;;;;5.60;100.00;101012.38;6180358;23;20057;-85
2024/01/12 15:07:35;;;;;;;2.65;0.38;;;;;;;5.58;100.00;101009.72;6183888;23;20480;-83
2024/01/12 15:10:05;;;;;;;0.10;0.10;;;;;;;5.55;100.00;101016.41;6183853;23;20096;-84
2024/01/12 15:12:37;;;;;;;0.60;0.40;;;;;;;5.58;100.00;101022.56;6180368;23;20044;-85
2024/01/12 15:15:08;;;;;;;21.55;11.27;;;;;;;5.62;100.00;101016.81;6178261;23;20025;-84
2024/01/12 15:17:40;;;;;;;6.57;4.25;;;;;;;5.59;100.00;101011.50;6178048;23;20307;-85
2024/01/12 15:20:10;;;;;;;0.82;0.50;;;;;;;5.66;100.00;101013.59;6187675;23;20025;-87
2024/01/12 15:22:47;;;;;;;6.88;3.40;;;;;;;5.67;100.00;101023.06;6184532;23;20021;-86
2024/01/12 15:25:17;;;;;;;3.00;2.00;;;;;;;5.69;100.00;101025.72;6186021;23;20088;-87
2024/01/12 16:16:39;;;;;;;1.05;0.35;;;;;;;5.79;100.00;101039.91;6212449;22;20039;-87
2024/01/12 16:19:08;;;;;;;1.20;0.35;;;;;;;5.84;100.00;101048.75;6212240;23;20039;-87
2024/01/12 16:21:41;;;;;;;1.40;0.30;;;;;;;5.85;100.00;101050.53;6213436;23;20024;-87
2024/01/12 16:24:13;;;;;;;;;;;;;;;5.87;100.00;101054.94;6213733;23;20013;-87
2024/01/12 16:26:42;;;;;;;0.68;0.40;;;;;;;5.83;100.00;101058.13;6214732;23;19923;-86
2024/01/12 16:29:12;;;;;;;4.93;1.05;;;;;;;5.81;100.00;101053.72;6216200;23;20475;-87
2024/01/12 16:31:54;;;;;;;5.63;2.08;;;;;;;5.81;100.00;101054.59;6213928;23;20040;-87
2024/01/12 16:34:23;;;;;;;5.22;1.92;;;;;;;5.84;100.00;101059.00;6213724;23;20012;-87
2024/01/12 16:36:53;;;;;;;13.13;2.75;;;;;;;5.85;100.00;101061.69;6218456;23;20016;-88
2024/01/12 16:39:30;;;;;;;6.38;1.73;;;;;;;5.83;100.00;101057.25;6214225;23;20028;-87
2024/01/12 16:41:59;;;;;;;3.35;0.77;;;;;;;5.82;100.00;101066.66;6212301;23;20021;-86
2024/01/12 16:44:29;;;;;;;1.60;0.65;;;;;;;5.79;100.00;101057.91;6214540;23;20013;-87
2024/01/12 16:47:14;;;;;;;3.58;0.73;;;;;;;5.84;100.00;101069.28;6213908;23;20102;-87
2024/01/12 16:49:43;;;;;;;4.72;1.38;;;;;;;5.84;100.00;101072.75;6214288;23;20084;-87
2024/01/12 16:52:12;;;;;;;3.03;0.80;;;;;;;5.88;100.00;101076.34;6213502;23;20036;-87
2024/01/12 16:57:26;;;;;;;0.85;0.55;;;;;;;5.82;100.00;101071.78;6211124;23;20418;-87
2024/01/12 16:59:55;;;;;;;4.70;0.68;;;;;;;5.81;100.00;101079.41;6214487;23;20023;-87
2024/01/12 17:02:34;;;;;;;4.05;0.65;;;;;;;5.82;100.00;101073.50;6214664;23;20020;-87
2024/01/12 17:05:04;;;;;;;1.52;0.57;;;;;;;5.82;100.00;101070.91;6215754;23;20013;-87
2024/01/12 17:07:33;;;;;;;3.03;0.57;;;;;;;5.80;100.00;101081.09;6215169;23;20023;-88
2024/01/12 17:10:05;;;;;;;3.40;1.38;;;;;;;5.84;100.00;101092.41;6214475;23;20017;-88
2024/01/12 17:12:36;;;;;;;8.80;1.15;;;;;;;5.90;100.00;101084.16;6213195;23;20091;-88
2024/01/12 17:15:06;;;;;;;2.42;0.75;;;;;;;5.96;100.00;101090.53;6213059;23;20134;-87
2024/01/12 17:17:37;;;;;;;4.45;0.82;;;;;;;6.01;100.00;101086.53;6207423;23;20025;-86
2024/01/12 17:20:10;;;;;;;2.25;0.70;;;;;;;6.02;100.00;101080.56;6214344;23;20113;-89
2024/01/12 17:22:39;;;;;;;5.25;1.77;;;;;;;6.11;100.00;101099.84;6213832;23;20032;-88
2024/01/12 17:25:08;;;;;;;5.78;0.60;;;;;;;6.12;100.00;101097.38;6213436;23;20013;-88
2024/01/12 17:27:37;;;;;;;2.42;0.88;;;;;;;6.14;100.00;101100.91;6213004;23;20028;-87
2024/01/12 17:30:18;;;;;;;2.05;0.63;;;;;;;6.18;100.00;101099.38;6215169;23;20021;-87
2024/01/12 17:32:51;;;;;;;2.00;0.32;;;;;;;6.23;100.00;101106.53;6207401;23;20024;-88
2024/01/12 17:35:20;;;;;;;5.55;0.50;;;;;;;6.24;100.00;101112.56;6216756;23;20021;-86
2024/01/12 17:37:53;;;;;;;4.22;0.73;;;;;;;6.25;100.00;101116.88;6217121;23;20055;-88
2024/01/12 17:40:24;;;;;;;5.43;0.55;;;;;;;6.28;99.26;101119.63;6221135;23;20036;-87
2024/01/12 17:42:53;;;;;;;2.38;0.60;;;;;;;6.32;97.51;101121.53;6221142;23;20016;-88
2024/01/12 17:45:23;;;;;;;6.85;0.70;;;;;;;6.57;95.53;101125.38;6219179;23;20459;-87
2024/01/12 17:48:06;;;;;;;5.07;0.80;;;;;;;6.66;91.65;101124.16;6219626;23;20024;-88
2024/01/12 17:50:35;;;;;;;3.63;0.88;;;;;;;6.62;94.83;101129.06;6222952;23;20020;-87
2024/01/12 17:53:05;;;;;;;2.78;0.50;;;;;;;6.68;95.23;101125.13;6224680;23;20445;-88
2024/01/12 17:55:36;;;;;;;5.72;0.70;;;;;;;6.69;92.94;101134.63;6219923;23;20020;-87
2024/01/12 17:58:07;;;;;;;3.40;0.68;;;;;;;7.55;89.80;101132.81;6218643;23;20087;-86
2024/01/12 18:00:37;;;;;;;4.50;0.98;;;;;;;7.45;91.92;101125.47;6222395;23;20021;-87
2024/01/12 18:03:10;;;;;;;2.55;0.70;;;;;;;7.44;91.82;101139.16;6223222;23;20124;-88
2024/01/12 18:05:47;;;;;;;3.63;0.60;;;;;;;7.40;90.01;101135.56;6219480;23;20020;-88
2024/01/12 18:08:16;;;;;;;3.08;0.60;;;;;;;7.83;90.00;101147.00;6222995;23;20017;-87
2024/01/12 18:10:45;;;;;;;2.10;0.50;;;;;;;7.65;86.75;101137.63;6221270;23;20076;-88
2024/01/12 18:13:14;;;;;;;4.60;0.50;;;;;;;7.50;89.11;101140.31;6220250;23;20024;-88
2024/01/12 18:15:46;;;;;;;6.07;0.63;;;;;;;7.71;85.89;101135.31;6219999;23;20034;-89
2024/01/12 18:28:48;;;;;;;1.63;0.52;;;;;;;7.83;85.79;101137.56;6213413;23;20152;-89
2024/01/12 18:39:03;;;;;;;2.65;0.68;;;;;;;8.11;85.27;101137.16;6210418;23;20013;-89
2024/01/12 18:41:36;;;;;;;1.27;0.40;;;;;;;8.22;79.21;101129.03;6225542;23;20027;-87
2024/01/12 18:44:22;;;;;;;1.33;0.75;;;;;;;8.27;81.53;101140.41;6225639;23;20078;-86